AR20 weather

Lawrence Memorial Heliport
Walnut Ridge, Arkansas, United States

Public forecast

Using degrees Fahrenheit for public forecast. Weather courtesy of forecast.io.

Closest aviation weather report (METAR) to Lawrence Memorial Heliport

Closest report is Walnut Ridge Regional Airport, 3.7 nm (6.9 km) NE. Retrieved 2020/05/26 16:13 UTC (19 minutes ago):

KARG 261613Z AUTO 16015G20KT 10SM BKN029 OVC034 25/20 A2990 RMK AO2

Closest aviation forecast (TAF) to Lawrence Memorial Heliport

Closest forecast is Jonesboro Municipal Airport, 21.4 nm (39.6 km) SE. Retrieved 2020/05/26 12:27 UTC (4 hours ago):

TAF KJBR 261125Z 2612/2712 16011KT P6SM FEW060 BKN120 FM261400 16013G20KT P6SM FEW040 BKN100 FM261900 16011G17KT P6SM VCTS SCT040CB BKN060 FM270100 14008KT P6SM VCSH SCT025 BKN050 FM270600 17006KT P6SM VCSH BKN015 AMD NOT SKED